sensor_id;sensor_type;location;lat;lon;timestamp;temperature;humidity
36800;DHT22;22752;51.960;5.886;2022-10-15T00:00:49;10.40;99.90
36800;DHT22;22752;51.960;5.886;2022-10-15T00:03:15;10.40;99.90
36800;DHT22;22752;51.960;5.886;2022-10-15T00:05:41;10.40;99.90
36800;DHT22;22752;51.960;5.886;2022-10-15T00:08:08;10.20;99.90
36800;DHT22;22752;51.960;5.886;2022-10-15T00:10:35;10.20;99.90
36800;DHT22;22752;51.960;5.886;2022-10-15T00:13:00;10.10;99.90
36800;DHT22;22752;51.960;5.886;2022-10-15T00:15:26;10.10;99.90
36800;DHT22;22752;51.960;5.886;2022-10-15T00:17:52;10.10;99.90
36800;DHT22;22752;51.960;5.886;2022-10-15T00:20:18;10.10;99.90
36800;DHT22;22752;51.960;5.886;2022-10-15T00:22:44;10.10;99.90
36800;DHT22;22752;51.960;5.886;2022-10-15T00:25:09;10.10;99.90
36800;DHT22;22752;51.960;5.886;2022-10-15T00:27:35;10.10;99.90
36800;DHT22;22752;51.960;5.886;2022-10-15T00:30:01;10.10;99.90
36800;DHT22;22752;51.960;5.886;2022-10-15T00:32:28;10.10;99.90
36800;DHT22;22752;51.960;5.886;2022-10-15T00:34:54;10.10;99.90
36800;DHT22;22752;51.960;5.886;2022-10-15T00:37:20;10.10;99.90
36800;DHT22;22752;51.960;5.886;2022-10-15T00:39:46;10.10;99.90
36800;DHT22;22752;51.960;5.886;2022-10-15T00:42:11;10.10;99.90
36800;DHT22;22752;51.960;5.886;2022-10-15T00:44:56;10.00;99.90
36800;DHT22;22752;51.960;5.886;2022-10-15T00:47:23;10.10;99.90
36800;DHT22;22752;51.960;5.886;2022-10-15T00:50:00;10.00;99.90
36800;DHT22;22752;51.960;5.886;2022-10-15T00:53:06;10.00;99.90
36800;DHT22;22752;51.960;5.886;2022-10-15T00:55:40;9.90;99.90
36800;DHT22;22752;51.960;5.886;2022-10-15T00:58:09;9.90;99.90
36800;DHT22;22752;51.960;5.886;2022-10-15T01:00:35;9.90;99.90
36800;DHT22;22752;51.960;5.886;2022-10-15T01:03:01;9.90;99.90
36800;DHT22;22752;51.960;5.886;2022-10-15T01:05:27;9.90;99.90
36800;DHT22;22752;51.960;5.886;2022-10-15T01:07:53;9.90;99.90
36800;DHT22;22752;51.960;5.886;2022-10-15T01:10:19;9.90;99.90
36800;DHT22;22752;51.960;5.886;2022-10-15T01:12:56;9.90;99.90
36800;DHT22;22752;51.960;5.886;2022-10-15T01:17:54;9.90;99.90
36800;DHT22;22752;51.960;5.886;2022-10-15T01:32:02;10.20;99.90
36800;DHT22;22752;51.960;5.886;2022-10-15T01:35:07;10.30;99.90
36800;DHT22;22752;51.960;5.886;2022-10-15T01:40:17;10.40;99.90
36800;DHT22;22752;51.960;5.886;2022-10-15T01:42:57;10.50;99.90
36800;DHT22;22752;51.960;5.886;2022-10-15T01:45:51;10.50;99.90
36800;DHT22;22752;51.960;5.886;2022-10-15T01:48:18;10.60;99.90
36800;DHT22;22752;51.960;5.886;2022-10-15T01:50:49;10.60;99.90
36800;DHT22;22752;51.960;5.886;2022-10-15T01:53:18;10.70;99.90
36800;DHT22;22752;51.960;5.886;2022-10-15T01:55:54;10.70;99.90
36800;DHT22;22752;51.960;5.886;2022-10-15T01:58:22;10.70;99.90
36800;DHT22;22752;51.960;5.886;2022-10-15T02:00:49;10.80;99.90
36800;DHT22;22752;51.960;5.886;2022-10-15T02:03:16;10.80;99.90
36800;DHT22;22752;51.960;5.886;2022-10-15T02:05:51;10.80;99.90
36800;DHT22;22752;51.960;5.886;2022-10-15T02:11:08;10.80;99.90
36800;DHT22;22752;51.960;5.886;2022-10-15T02:14:00;10.80;99.90
36800;DHT22;22752;51.960;5.886;2022-10-15T02:16:36;10.90;99.90
36800;DHT22;22752;51.960;5.886;2022-10-15T02:19:11;10.90;99.90
36800;DHT22;22752;51.960;5.886;2022-10-15T02:21:58;11.00;99.90
36800;DHT22;22752;51.960;5.886;2022-10-15T02:24:31;11.00;99.90
36800;DHT22;22752;51.960;5.886;2022-10-15T02:26:58;11.00;99.90
36800;DHT22;22752;51.960;5.886;2022-10-15T02:29:27;11.10;99.90
36800;DHT22;22752;51.960;5.886;2022-10-15T02:31:56;11.10;99.90
36800;DHT22;22752;51.960;5.886;2022-10-15T02:34:28;11.00;99.90
36800;DHT22;22752;51.960;5.886;2022-10-15T02:36:56;11.10;99.90
36800;DHT22;22752;51.960;5.886;2022-10-15T02:39:23;11.00;99.90
36800;DHT22;22752;51.960;5.886;2022-10-15T02:41:51;11.00;99.90
36800;DHT22;22752;51.960;5.886;2022-10-15T02:44:17;10.90;99.90
36800;DHT22;22752;51.960;5.886;2022-10-15T02:46:43;10.90;99.90
36800;DHT22;22752;51.960;5.886;2022-10-15T02:49:09;10.80;99.90
36800;DHT22;22752;51.960;5.886;2022-10-15T02:51:35;10.80;99.90
36800;DHT22;22752;51.960;5.886;2022-10-15T02:54:03;10.80;99.90
36800;DHT22;22752;51.960;5.886;2022-10-15T02:56:29;10.80;99.90
36800;DHT22;22752;51.960;5.886;2022-10-15T02:58:54;10.80;99.90
36800;DHT22;22752;51.960;5.886;2022-10-15T03:01:20;10.80;99.90
36800;DHT22;22752;51.960;5.886;2022-10-15T03:03:46;10.70;99.90
36800;DHT22;22752;51.960;5.886;2022-10-15T03:06:12;10.70;99.90
36800;DHT22;22752;51.960;5.886;2022-10-15T03:08:38;10.60;99.90
36800;DHT22;22752;51.960;5.886;2022-10-15T03:11:04;10.50;99.90
36800;DHT22;22752;51.960;5.886;2022-10-15T03:13:30;10.40;99.90
36800;DHT22;22752;51.960;5.886;2022-10-15T03:15:55;10.30;99.90
36800;DHT22;22752;51.960;5.886;2022-10-15T03:18:22;10.30;99.90
36800;DHT22;22752;51.960;5.886;2022-10-15T03:20:54;10.30;99.90
36800;DHT22;22752;51.960;5.886;2022-10-15T03:23:20;10.20;99.90
36800;DHT22;22752;51.960;5.886;2022-10-15T03:25:46;10.20;99.90
36800;DHT22;22752;51.960;5.886;2022-10-15T03:28:12;10.10;99.90
36800;DHT22;22752;51.960;5.886;2022-10-15T03:30:37;10.20;99.90
36800;DHT22;22752;51.960;5.886;2022-10-15T03:33:03;10.20;99.90
36800;DHT22;22752;51.960;5.886;2022-10-15T03:35:29;10.20;99.90
36800;DHT22;22752;51.960;5.886;2022-10-15T03:37:54;10.30;99.90
36800;DHT22;22752;51.960;5.886;2022-10-15T03:40:20;10.30;99.90
36800;DHT22;22752;51.960;5.886;2022-10-15T03:42:50;10.40;99.90
36800;DHT22;22752;51.960;5.886;2022-10-15T03:45:19;10.40;99.90
36800;DHT22;22752;51.960;5.886;2022-10-15T03:47:45;10.50;99.90
36800;DHT22;22752;51.960;5.886;2022-10-15T03:50:11;10.60;99.90
36800;DHT22;22752;51.960;5.886;2022-10-15T03:52:37;10.60;99.90
36800;DHT22;22752;51.960;5.886;2022-10-15T03:55:03;10.60;99.90
36800;DHT22;22752;51.960;5.886;2022-10-15T03:57:29;10.70;99.90
36800;DHT22;22752;51.960;5.886;2022-10-15T03:59:55;10.70;99.90
36800;DHT22;22752;51.960;5.886;2022-10-15T04:02:21;10.70;99.90
36800;DHT22;22752;51.960;5.886;2022-10-15T04:04:46;10.80;99.90
36800;DHT22;22752;51.960;5.886;2022-10-15T04:07:12;10.80;99.90
36800;DHT22;22752;51.960;5.886;2022-10-15T04:09:38;10.80;99.90
36800;DHT22;22752;51.960;5.886;2022-10-15T04:12:03;10.80;99.90
36800;DHT22;22752;51.960;5.886;2022-10-15T04:14:29;10.90;99.90
36800;DHT22;22752;51.960;5.886;2022-10-15T04:16:55;10.80;99.90
36800;DHT22;22752;51.960;5.886;2022-10-15T04:19:23;10.80;99.90
36800;DHT22;22752;51.960;5.886;2022-10-15T04:21:49;10.80;99.90
36800;DHT22;22752;51.960;5.886;2022-10-15T04:24:14;10.70;99.90
36800;DHT22;22752;51.960;5.886;2022-10-15T04:26:40;10.80;99.90
36800;DHT22;22752;51.960;5.886;2022-10-15T04:29:06;10.70;99.90
36800;DHT22;22752;51.960;5.886;2022-10-15T04:31:31;10.80;99.90
36800;DHT22;22752;51.960;5.886;2022-10-15T04:33:57;10.80;99.90
36800;DHT22;22752;51.960;5.886;2022-10-15T04:36:23;10.80;99.90
36800;DHT22;22752;51.960;5.886;2022-10-15T04:38:49;10.80;99.90
36800;DHT22;22752;51.960;5.886;2022-10-15T04:41:15;10.80;99.90
36800;DHT22;22752;51.960;5.886;2022-10-15T04:43:41;10.70;99.90
36800;DHT22;22752;51.960;5.886;2022-10-15T04:46:07;10.70;99.90
36800;DHT22;22752;51.960;5.886;2022-10-15T04:48:35;10.70;99.90
36800;DHT22;22752;51.960;5.886;2022-10-15T04:51:06;10.70;99.90
36800;DHT22;22752;51.960;5.886;2022-10-15T04:53:32;10.70;99.90
36800;DHT22;22752;51.960;5.886;2022-10-15T04:56:13;10.70;99.90
36800;DHT22;22752;51.960;5.886;2022-10-15T04:58:41;10.70;99.90
36800;DHT22;22752;51.960;5.886;2022-10-15T05:01:09;10.70;99.90
36800;DHT22;22752;51.960;5.886;2022-10-15T05:03:39;10.80;99.90
36800;DHT22;22752;51.960;5.886;2022-10-15T05:06:08;10.80;99.90
36800;DHT22;22752;51.960;5.886;2022-10-15T05:08:35;10.90;99.90
36800;DHT22;22752;51.960;5.886;2022-10-15T05:11:05;10.90;99.90
36800;DHT22;22752;51.960;5.886;2022-10-15T05:13:31;11.00;99.90
36800;DHT22;22752;51.960;5.886;2022-10-15T05:16:11;11.10;99.90
36800;DHT22;22752;51.960;5.886;2022-10-15T05:18:38;11.20;99.90
36800;DHT22;22752;51.960;5.886;2022-10-15T05:21:04;11.30;99.90
36800;DHT22;22752;51.960;5.886;2022-10-15T05:23:30;11.30;99.90
36800;DHT22;22752;51.960;5.886;2022-10-15T05:26:00;11.40;99.90
36800;DHT22;22752;51.960;5.886;2022-10-15T05:28:26;11.50;99.90
36800;DHT22;22752;51.960;5.886;2022-10-15T05:30:52;11.50;99.90
36800;DHT22;22752;51.960;5.886;2022-10-15T05:33:17;11.60;99.90
36800;DHT22;22752;51.960;5.886;2022-10-15T05:35:43;11.60;99.90
36800;DHT22;22752;51.960;5.886;2022-10-15T05:38:08;11.70;99.90
36800;DHT22;22752;51.960;5.886;2022-10-15T05:40:34;11.70;99.90
36800;DHT22;22752;51.960;5.886;2022-10-15T05:43:00;11.70;99.90
36800;DHT22;22752;51.960;5.886;2022-10-15T05:45:25;11.80;99.90
36800;DHT22;22752;51.960;5.886;2022-10-15T05:47:54;11.90;99.90
36800;DHT22;22752;51.960;5.886;2022-10-15T05:50:21;11.90;99.90
36800;DHT22;22752;51.960;5.886;2022-10-15T05:52:47;11.90;99.90
36800;DHT22;22752;51.960;5.886;2022-10-15T05:55:12;11.90;99.90
36800;DHT22;22752;51.960;5.886;2022-10-15T05:57:38;12.00;99.90
36800;DHT22;22752;51.960;5.886;2022-10-15T06:00:06;12.00;99.90
36800;DHT22;22752;51.960;5.886;2022-10-15T06:02:32;12.00;99.90
36800;DHT22;22752;51.960;5.886;2022-10-15T06:04:58;12.00;99.90
36800;DHT22;22752;51.960;5.886;2022-10-15T06:07:23;12.10;99.90
36800;DHT22;22752;51.960;5.886;2022-10-15T06:09:49;12.10;99.90
36800;DHT22;22752;51.960;5.886;2022-10-15T06:12:15;12.20;99.90
36800;DHT22;22752;51.960;5.886;2022-10-15T06:14:40;12.30;99.90
36800;DHT22;22752;51.960;5.886;2022-10-15T06:17:06;12.40;99.90
36800;DHT22;22752;51.960;5.886;2022-10-15T06:19:31;12.40;99.90
36800;DHT22;22752;51.960;5.886;2022-10-15T06:21:57;12.50;99.90
36800;DHT22;22752;51.960;5.886;2022-10-15T06:24:23;12.60;99.90
36800;DHT22;22752;51.960;5.886;2022-10-15T06:26:48;12.60;99.90
36800;DHT22;22752;51.960;5.886;2022-10-15T06:29:14;12.70;99.90
36800;DHT22;22752;51.960;5.886;2022-10-15T06:31:39;12.70;99.90
36800;DHT22;22752;51.960;5.886;2022-10-15T06:34:06;12.80;99.90
36800;DHT22;22752;51.960;5.886;2022-10-15T06:36:31;12.90;99.90
36800;DHT22;22752;51.960;5.886;2022-10-15T06:38:57;12.90;99.90
36800;DHT22;22752;51.960;5.886;2022-10-15T06:41:23;12.90;99.90
36800;DHT22;22752;51.960;5.886;2022-10-15T06:43:49;13.00;99.90
36800;DHT22;22752;51.960;5.886;2022-10-15T06:46:15;13.00;99.90
36800;DHT22;22752;51.960;5.886;2022-10-15T06:48:40;13.00;99.90
36800;DHT22;22752;51.960;5.886;2022-10-15T06:51:06;13.00;99.90
36800;DHT22;22752;51.960;5.886;2022-10-15T06:53:32;13.10;99.90
36800;DHT22;22752;51.960;5.886;2022-10-15T06:55:59;13.10;99.90
36800;DHT22;22752;51.960;5.886;2022-10-15T06:58:25;13.10;99.90
36800;DHT22;22752;51.960;5.886;2022-10-15T07:00:51;13.20;99.90
36800;DHT22;22752;51.960;5.886;2022-10-15T07:03:16;13.20;99.90
36800;DHT22;22752;51.960;5.886;2022-10-15T07:05:42;13.20;99.90
36800;DHT22;22752;51.960;5.886;2022-10-15T07:08:08;13.20;99.90
36800;DHT22;22752;51.960;5.886;2022-10-15T07:10:33;13.30;99.90
36800;DHT22;22752;51.960;5.886;2022-10-15T07:13:00;13.30;99.90
36800;DHT22;22752;51.960;5.886;2022-10-15T07:15:26;13.40;99.90
36800;DHT22;22752;51.960;5.886;2022-10-15T07:17:53;13.40;99.90
36800;DHT22;22752;51.960;5.886;2022-10-15T07:20:27;13.40;99.90
36800;DHT22;22752;51.960;5.886;2022-10-15T07:23:00;13.40;99.90
36800;DHT22;22752;51.960;5.886;2022-10-15T07:25:26;13.50;99.90
36800;DHT22;22752;51.960;5.886;2022-10-15T07:27:52;13.50;99.90
36800;DHT22;22752;51.960;5.886;2022-10-15T07:30:20;13.50;99.90
36800;DHT22;22752;51.960;5.886;2022-10-15T07:32:46;13.60;99.90
36800;DHT22;22752;51.960;5.886;2022-10-15T07:35:11;13.60;99.90
36800;DHT22;22752;51.960;5.886;2022-10-15T07:37:37;13.60;99.90
36800;DHT22;22752;51.960;5.886;2022-10-15T07:40:03;13.70;99.90
36800;DHT22;22752;51.960;5.886;2022-10-15T07:42:29;13.70;99.90
36800;DHT22;22752;51.960;5.886;2022-10-15T07:44:54;13.70;99.90
36800;DHT22;22752;51.960;5.886;2022-10-15T07:47:20;13.80;99.90
36800;DHT22;22752;51.960;5.886;2022-10-15T07:49:46;13.80;99.90
36800;DHT22;22752;51.960;5.886;2022-10-15T07:52:11;13.70;99.90
36800;DHT22;22752;51.960;5.886;2022-10-15T07:54:37;13.80;99.90
36800;DHT22;22752;51.960;5.886;2022-10-15T07:57:03;13.80;99.90
36800;DHT22;22752;51.960;5.886;2022-10-15T07:59:31;13.80;99.90
36800;DHT22;22752;51.960;5.886;2022-10-15T08:01:57;13.80;99.90
36800;DHT22;22752;51.960;5.886;2022-10-15T08:04:22;13.90;99.90
36800;DHT22;22752;51.960;5.886;2022-10-15T08:06:48;14.00;99.90
36800;DHT22;22752;51.960;5.886;2022-10-15T08:09:14;14.10;99.90
36800;DHT22;22752;51.960;5.886;2022-10-15T08:11:40;14.30;99.90
36800;DHT22;22752;51.960;5.886;2022-10-15T08:14:05;14.40;99.90
36800;DHT22;22752;51.960;5.886;2022-10-15T08:16:31;14.50;99.90
36800;DHT22;22752;51.960;5.886;2022-10-15T08:18:57;14.60;99.90
36800;DHT22;22752;51.960;5.886;2022-10-15T08:21:24;14.70;99.90
36800;DHT22;22752;51.960;5.886;2022-10-15T08:23:50;14.80;99.90
36800;DHT22;22752;51.960;5.886;2022-10-15T08:26:16;14.90;99.90
36800;DHT22;22752;51.960;5.886;2022-10-15T08:28:42;15.00;99.90
36800;DHT22;22752;51.960;5.886;2022-10-15T08:31:08;15.10;99.90
36800;DHT22;22752;51.960;5.886;2022-10-15T08:33:35;15.30;99.90
36800;DHT22;22752;51.960;5.886;2022-10-15T08:36:01;15.50;99.90
36800;DHT22;22752;51.960;5.886;2022-10-15T08:38:26;15.60;99.90
36800;DHT22;22752;51.960;5.886;2022-10-15T08:40:56;15.70;99.90
36800;DHT22;22752;51.960;5.886;2022-10-15T08:45:54;15.90;99.90
36800;DHT22;22752;51.960;5.886;2022-10-15T08:48:31;16.00;99.90
36800;DHT22;22752;51.960;5.886;2022-10-15T08:51:05;16.00;99.90
36800;DHT22;22752;51.960;5.886;2022-10-15T08:53:43;16.10;99.90
36800;DHT22;22752;51.960;5.886;2022-10-15T08:56:34;16.00;99.90
36800;DHT22;22752;51.960;5.886;2022-10-15T09:04:29;15.70;99.90
36800;DHT22;22752;51.960;5.886;2022-10-15T09:07:25;15.60;99.90
36800;DHT22;22752;51.960;5.886;2022-10-15T09:09:55;15.40;99.90
36800;DHT22;22752;51.960;5.886;2022-10-15T09:12:54;15.40;99.90
36800;DHT22;22752;51.960;5.886;2022-10-15T09:15:23;15.50;99.90
36800;DHT22;22752;51.960;5.886;2022-10-15T09:17:51;15.60;99.90
36800;DHT22;22752;51.960;5.886;2022-10-15T09:20:25;15.80;99.90
36800;DHT22;22752;51.960;5.886;2022-10-15T09:22:54;16.00;99.90
36800;DHT22;22752;51.960;5.886;2022-10-15T09:25:22;16.00;99.90
36800;DHT22;22752;51.960;5.886;2022-10-15T09:27:50;16.10;99.90
36800;DHT22;22752;51.960;5.886;2022-10-15T09:36:17;16.10;99.90
36800;DHT22;22752;51.960;5.886;2022-10-15T09:43:58;16.50;99.90
36800;DHT22;22752;51.960;5.886;2022-10-15T09:46:26;16.50;99.90
36800;DHT22;22752;51.960;5.886;2022-10-15T09:49:24;16.60;99.90
36800;DHT22;22752;51.960;5.886;2022-10-15T09:52:00;16.70;99.90
36800;DHT22;22752;51.960;5.886;2022-10-15T09:57:08;16.70;99.90
36800;DHT22;22752;51.960;5.886;2022-10-15T09:59:35;16.70;99.90
36800;DHT22;22752;51.960;5.886;2022-10-15T10:02:17;16.60;99.90
36800;DHT22;22752;51.960;5.886;2022-10-15T10:04:43;16.60;99.90
36800;DHT22;22752;51.960;5.886;2022-10-15T10:09:56;16.30;99.90
36800;DHT22;22752;51.960;5.886;2022-10-15T10:12:26;16.40;99.90
36800;DHT22;22752;51.960;5.886;2022-10-15T10:14:57;16.30;99.90
36800;DHT22;22752;51.960;5.886;2022-10-15T10:17:25;16.40;99.90
36800;DHT22;22752;51.960;5.886;2022-10-15T10:20:24;16.30;99.90
36800;DHT22;22752;51.960;5.886;2022-10-15T10:22:56;16.40;99.90
36800;DHT22;22752;51.960;5.886;2022-10-15T10:25:38;16.30;99.90
36800;DHT22;22752;51.960;5.886;2022-10-15T10:28:14;16.20;99.90
36800;DHT22;22752;51.960;5.886;2022-10-15T10:31:07;16.20;99.90
36800;DHT22;22752;51.960;5.886;2022-10-15T10:33:45;16.20;99.90
36800;DHT22;22752;51.960;5.886;2022-10-15T10:36:33;16.20;99.90
36800;DHT22;22752;51.960;5.886;2022-10-15T10:49:35;15.90;99.90
36800;DHT22;22752;51.960;5.886;2022-10-15T10:52:02;15.80;99.90
36800;DHT22;22752;51.960;5.886;2022-10-15T10:54:28;15.80;99.90
36800;DHT22;22752;51.960;5.886;2022-10-15T10:56:56;15.80;99.90
36800;DHT22;22752;51.960;5.886;2022-10-15T10:59:31;15.80;99.90
36800;DHT22;22752;51.960;5.886;2022-10-15T11:01:59;15.90;99.90
36800;DHT22;22752;51.960;5.886;2022-10-15T11:04:26;15.90;99.90
36800;DHT22;22752;51.960;5.886;2022-10-15T11:09:54;15.80;99.90
36800;DHT22;22752;51.960;5.886;2022-10-15T11:18:13;15.80;99.90
36800;DHT22;22752;51.960;5.886;2022-10-15T11:23:57;15.90;99.90
36800;DHT22;22752;51.960;5.886;2022-10-15T11:26:42;15.90;99.90
36800;DHT22;22752;51.960;5.886;2022-10-15T11:35:30;15.90;99.90
36800;DHT22;22752;51.960;5.886;2022-10-15T11:46:37;16.10;99.90
36800;DHT22;22752;51.960;5.886;2022-10-15T11:57:15;16.30;99.90
36800;DHT22;22752;51.960;5.886;2022-10-15T12:02:46;16.30;99.90
36800;DHT22;22752;51.960;5.886;2022-10-15T12:05:20;16.20;99.90
36800;DHT22;22752;51.960;5.886;2022-10-15T12:07:52;16.20;99.90
36800;DHT22;22752;51.960;5.886;2022-10-15T12:16:18;16.20;99.90
36800;DHT22;22752;51.960;5.886;2022-10-15T12:19:19;16.30;99.90
36800;DHT22;22752;51.960;5.886;2022-10-15T12:22:06;16.30;99.90
36800;DHT22;22752;51.960;5.886;2022-10-15T12:27:20;16.40;99.90
36800;DHT22;22752;51.960;5.886;2022-10-15T12:32:28;16.60;99.90
36800;DHT22;22752;51.960;5.886;2022-10-15T12:34:59;16.60;99.90
36800;DHT22;22752;51.960;5.886;2022-10-15T12:37:27;16.60;99.90
36800;DHT22;22752;51.960;5.886;2022-10-15T12:40:22;16.70;99.90
36800;DHT22;22752;51.960;5.886;2022-10-15T12:42:50;16.80;99.90
36800;DHT22;22752;51.960;5.886;2022-10-15T12:45:32;16.80;99.90
36800;DHT22;22752;51.960;5.886;2022-10-15T12:50:32;17.00;99.90
36800;DHT22;22752;51.960;5.886;2022-10-15T12:58:41;17.10;99.90
36800;DHT22;22752;51.960;5.886;2022-10-15T13:03:40;17.10;99.90
36800;DHT22;22752;51.960;5.886;2022-10-15T13:06:23;17.20;99.90
36800;DHT22;22752;51.960;5.886;2022-10-15T13:09:03;17.20;99.90
36800;DHT22;22752;51.960;5.886;2022-10-15T13:11:34;17.30;99.90
36800;DHT22;22752;51.960;5.886;2022-10-15T13:16:41;17.40;99.90
36800;DHT22;22752;51.960;5.886;2022-10-15T13:19:16;17.50;99.90
36800;DHT22;22752;51.960;5.886;2022-10-15T13:24:18;17.70;99.90
36800;DHT22;22752;51.960;5.886;2022-10-15T13:26:44;17.80;99.90
36800;DHT22;22752;51.960;5.886;2022-10-15T13:29:18;17.80;99.90
36800;DHT22;22752;51.960;5.886;2022-10-15T13:31:45;17.90;99.90
36800;DHT22;22752;51.960;5.886;2022-10-15T13:36:50;17.90;99.90
36800;DHT22;22752;51.960;5.886;2022-10-15T13:42:20;18.00;99.90
36800;DHT22;22752;51.960;5.886;2022-10-15T13:44:59;18.00;99.90
36800;DHT22;22752;51.960;5.886;2022-10-15T13:47:32;18.00;99.90
36800;DHT22;22752;51.960;5.886;2022-10-15T13:50:24;17.90;99.90
36800;DHT22;22752;51.960;5.886;2022-10-15T13:52:58;17.90;99.90
36800;DHT22;22752;51.960;5.886;2022-10-15T13:55:29;17.80;99.90
36800;DHT22;22752;51.960;5.886;2022-10-15T13:58:02;17.80;99.90
36800;DHT22;22752;51.960;5.886;2022-10-15T14:00:34;17.80;99.90
36800;DHT22;22752;51.960;5.886;2022-10-15T14:03:22;17.80;99.90
36800;DHT22;22752;51.960;5.886;2022-10-15T14:05:50;17.80;99.90
36800;DHT22;22752;51.960;5.886;2022-10-15T14:08:19;17.90;99.90
36800;DHT22;22752;51.960;5.886;2022-10-15T14:10:45;17.80;99.90
36800;DHT22;22752;51.960;5.886;2022-10-15T14:13:11;17.80;99.90
36800;DHT22;22752;51.960;5.886;2022-10-15T14:15:49;17.70;99.90
36800;DHT22;22752;51.960;5.886;2022-10-15T14:18:18;17.60;99.90
36800;DHT22;22752;51.960;5.886;2022-10-15T14:20:51;17.30;99.90
36800;DHT22;22752;51.960;5.886;2022-10-15T14:23:23;17.20;99.90
36800;DHT22;22752;51.960;5.886;2022-10-15T14:26:00;17.10;99.90
36800;DHT22;22752;51.960;5.886;2022-10-15T14:28:29;17.00;99.90
36800;DHT22;22752;51.960;5.886;2022-10-15T14:30:56;16.90;99.90
36800;DHT22;22752;51.960;5.886;2022-10-15T14:36:07;16.80;99.90
36800;DHT22;22752;51.960;5.886;2022-10-15T14:38:34;16.90;99.90
36800;DHT22;22752;51.960;5.886;2022-10-15T14:41:03;16.90;99.90
36800;DHT22;22752;51.960;5.886;2022-10-15T14:43:34;17.00;99.90
36800;DHT22;22752;51.960;5.886;2022-10-15T14:46:03;17.00;99.90
36800;DHT22;22752;51.960;5.886;2022-10-15T14:48:35;17.00;99.90
36800;DHT22;22752;51.960;5.886;2022-10-15T14:51:06;17.00;99.90
36800;DHT22;22752;51.960;5.886;2022-10-15T14:53:37;17.10;99.90
36800;DHT22;22752;51.960;5.886;2022-10-15T14:56:27;17.10;99.90
36800;DHT22;22752;51.960;5.886;2022-10-15T14:58:55;17.00;99.90
36800;DHT22;22752;51.960;5.886;2022-10-15T15:01:22;17.00;99.90
36800;DHT22;22752;51.960;5.886;2022-10-15T15:03:53;16.90;99.90
36800;DHT22;22752;51.960;5.886;2022-10-15T15:06:19;16.90;99.90
36800;DHT22;22752;51.960;5.886;2022-10-15T15:08:45;16.80;99.90
36800;DHT22;22752;51.960;5.886;2022-10-15T15:11:23;16.80;99.90
36800;DHT22;22752;51.960;5.886;2022-10-15T15:13:50;16.70;99.90
36800;DHT22;22752;51.960;5.886;2022-10-15T15:16:17;16.70;99.90
36800;DHT22;22752;51.960;5.886;2022-10-15T15:18:43;16.60;99.90
36800;DHT22;22752;51.960;5.886;2022-10-15T15:21:13;16.60;99.90
36800;DHT22;22752;51.960;5.886;2022-10-15T15:23:40;16.60;99.90
36800;DHT22;22752;51.960;5.886;2022-10-15T15:26:06;16.60;99.90
36800;DHT22;22752;51.960;5.886;2022-10-15T15:28:31;16.60;99.90
36800;DHT22;22752;51.960;5.886;2022-10-15T15:30:59;16.60;99.90
36800;DHT22;22752;51.960;5.886;2022-10-15T15:33:26;16.50;99.90
36800;DHT22;22752;51.960;5.886;2022-10-15T15:38:47;16.40;99.90
36800;DHT22;22752;51.960;5.886;2022-10-15T15:41:18;16.40;99.90
36800;DHT22;22752;51.960;5.886;2022-10-15T15:43:45;16.40;99.90
36800;DHT22;22752;51.960;5.886;2022-10-15T15:46:11;16.30;99.90
36800;DHT22;22752;51.960;5.886;2022-10-15T15:48:37;16.30;99.90
36800;DHT22;22752;51.960;5.886;2022-10-15T15:51:19;16.20;99.90
36800;DHT22;22752;51.960;5.886;2022-10-15T15:53:45;16.20;99.90
36800;DHT22;22752;51.960;5.886;2022-10-15T15:56:11;16.10;99.90
36800;DHT22;22752;51.960;5.886;2022-10-15T15:58:36;16.00;99.90
36800;DHT22;22752;51.960;5.886;2022-10-15T16:01:02;16.00;99.90
36800;DHT22;22752;51.960;5.886;2022-10-15T16:03:28;15.90;99.90
36800;DHT22;22752;51.960;5.886;2022-10-15T16:05:53;15.90;99.90
36800;DHT22;22752;51.960;5.886;2022-10-15T16:08:19;15.80;99.90
36800;DHT22;22752;51.960;5.886;2022-10-15T16:10:44;15.70;99.90
36800;DHT22;22752;51.960;5.886;2022-10-15T16:13:10;15.60;99.90
36800;DHT22;22752;51.960;5.886;2022-10-15T16:15:35;15.60;99.90
36800;DHT22;22752;51.960;5.886;2022-10-15T16:18:01;15.50;99.90
36800;DHT22;22752;51.960;5.886;2022-10-15T16:20:27;15.50;99.90
36800;DHT22;22752;51.960;5.886;2022-10-15T16:22:53;15.40;99.90
36800;DHT22;22752;51.960;5.886;2022-10-15T16:25:19;15.40;99.90
36800;DHT22;22752;51.960;5.886;2022-10-15T16:27:46;15.30;99.90
36800;DHT22;22752;51.960;5.886;2022-10-15T16:30:16;15.20;99.90
36800;DHT22;22752;51.960;5.886;2022-10-15T16:32:42;15.20;99.90
36800;DHT22;22752;51.960;5.886;2022-10-15T16:35:08;15.10;99.90
36800;DHT22;22752;51.960;5.886;2022-10-15T16:37:34;15.00;99.90
36800;DHT22;22752;51.960;5.886;2022-10-15T16:40:00;14.90;99.90
36800;DHT22;22752;51.960;5.886;2022-10-15T16:42:26;14.80;99.90
36800;DHT22;22752;51.960;5.886;2022-10-15T16:44:51;14.70;99.90
36800;DHT22;22752;51.960;5.886;2022-10-15T16:47:17;14.60;99.90
36800;DHT22;22752;51.960;5.886;2022-10-15T16:49:43;14.50;99.90
36800;DHT22;22752;51.960;5.886;2022-10-15T16:52:09;14.40;99.90
36800;DHT22;22752;51.960;5.886;2022-10-15T16:54:35;14.30;99.90
36800;DHT22;22752;51.960;5.886;2022-10-15T16:57:01;14.20;99.90
36800;DHT22;22752;51.960;5.886;2022-10-15T16:59:26;14.10;99.90
36800;DHT22;22752;51.960;5.886;2022-10-15T17:01:52;14.00;99.90
36800;DHT22;22752;51.960;5.886;2022-10-15T17:04:18;13.90;99.90
36800;DHT22;22752;51.960;5.886;2022-10-15T17:06:44;13.90;99.90
36800;DHT22;22752;51.960;5.886;2022-10-15T17:09:10;13.80;99.90
36800;DHT22;22752;51.960;5.886;2022-10-15T17:11:37;13.70;99.90
36800;DHT22;22752;51.960;5.886;2022-10-15T17:14:06;13.70;99.90
36800;DHT22;22752;51.960;5.886;2022-10-15T17:16:39;13.60;99.90
36800;DHT22;22752;51.960;5.886;2022-10-15T17:19:05;13.50;99.90
36800;DHT22;22752;51.960;5.886;2022-10-15T17:21:31;13.50;99.90
36800;DHT22;22752;51.960;5.886;2022-10-15T17:24:00;13.40;99.90
36800;DHT22;22752;51.960;5.886;2022-10-15T17:26:30;13.40;99.90
36800;DHT22;22752;51.960;5.886;2022-10-15T17:29:04;13.40;99.90
36800;DHT22;22752;51.960;5.886;2022-10-15T17:31:31;13.30;99.90
36800;DHT22;22752;51.960;5.886;2022-10-15T17:33:58;13.30;99.90
36800;DHT22;22752;51.960;5.886;2022-10-15T17:36:27;13.30;99.90
36800;DHT22;22752;51.960;5.886;2022-10-15T17:38:59;13.30;99.90
36800;DHT22;22752;51.960;5.886;2022-10-15T17:41:27;13.20;99.90
36800;DHT22;22752;51.960;5.886;2022-10-15T17:43:53;13.20;99.90
36800;DHT22;22752;51.960;5.886;2022-10-15T17:46:24;13.20;99.90
36800;DHT22;22752;51.960;5.886;2022-10-15T17:48:51;13.20;99.90
36800;DHT22;22752;51.960;5.886;2022-10-15T17:51:21;13.10;99.90
36800;DHT22;22752;51.960;5.886;2022-10-15T17:53:47;13.10;99.90